Time;durP1;ratioP1;P1;durP2;ratioP2;P2;SDS_P1;SDS_P2;PMS_P1;PMS_P2;Temp;Humidity;BMP_temperature;BMP_pressure;BME280_temperature;BME280_humidity;BME280_pressure;Samples;Min_cycle;Max_cycle;Signal;HPM_P1;HPM_P2
2024/04/10 00:02:18;;;;;;;5.10;2.40;;;;;;;15.16;66.14;100762.71;103974;1310;22669;-59
2024/04/10 00:04:48;;;;;;;4.90;2.70;;;;;;;15.17;66.23;100766.66;103996;1304;26555;-59
2024/04/10 00:07:14;;;;;;;4.50;2.60;;;;;;;15.19;66.36;100769.75;104012;1301;22551;-59
2024/04/10 00:09:40;;;;;;;5.60;2.60;;;;;;;15.18;66.39;100770.98;104018;1295;22610;-59
2024/04/10 00:12:06;;;;;;;4.10;2.20;;;;;;;15.19;66.25;100777.73;104075;1296;22621;-59
2024/04/10 00:14:32;;;;;;;4.60;2.60;;;;;;;15.21;67.38;100785.83;104292;1298;23322;-61
2024/04/10 00:16:58;;;;;;;2.60;2.40;;;;;;;15.19;66.78;100784.67;104100;1308;22653;-59
2024/04/10 00:19:24;;;;;;;6.40;3.10;;;;;;;15.20;66.78;100788.61;104241;1292;22555;-59
2024/04/10 00:21:54;;;;;;;3.40;2.10;;;;;;;15.21;67.41;100798.31;103933;1307;23837;-60
2024/04/10 00:24:20;;;;;;;2.90;2.00;;;;;;;15.20;67.28;100804.42;104244;1310;22568;-59
2024/04/10 00:26:54;;;;;;;4.10;2.40;;;;;;;15.19;67.46;100810.35;105295;1309;22580;-59
2024/04/10 00:29:19;;;;;;;2.90;2.30;;;;;;;15.19;67.38;100813.14;105251;1287;22581;-58
2024/04/10 00:31:54;;;;;;;6.30;2.60;;;;;;;15.20;67.58;100818.48;105304;1308;22620;-58
2024/04/10 00:34:19;;;;;;;4.10;2.50;;;;;;;15.20;68.43;100821.97;104991;1310;22873;-59
2024/04/10 00:36:45;;;;;;;3.70;2.40;;;;;;;15.20;67.30;100825.95;104952;1310;24359;-59
2024/04/10 00:39:10;;;;;;;3.10;2.80;;;;;;;15.22;68.23;100833.54;104982;1288;23988;-58
2024/04/10 00:41:38;;;;;;;9.10;3.50;;;;;;;15.22;68.97;100841.52;104887;1302;22560;-60
2024/04/10 00:44:04;;;;;;;9.20;3.30;;;;;;;15.21;69.20;100842.42;104857;1310;22565;-59
2024/04/10 00:46:29;;;;;;;6.90;3.20;;;;;;;15.18;69.42;100844.95;104883;1308;22562;-58
2024/04/10 00:48:55;;;;;;;6.20;3.70;;;;;;;15.13;71.01;100850.31;105017;1305;22554;-58
2024/04/10 00:51:23;;;;;;;6.40;3.60;;;;;;;15.09;69.73;100861.57;105022;1292;22596;-58
2024/04/10 00:53:49;;;;;;;4.20;2.80;;;;;;;15.04;72.17;100874.25;104965;1308;25460;-59
2024/04/10 00:56:15;;;;;;;3.80;3.00;;;;;;;14.96;71.89;100875.86;105002;1308;26121;-58
2024/04/10 00:58:41;;;;;;;3.40;2.80;;;;;;;14.87;72.50;100882.73;105151;1308;24237;-58
2024/04/10 01:01:09;;;;;;;3.00;1.80;;;;;;;14.80;71.13;100895.25;105037;1292;26627;-58
2024/04/10 01:03:38;;;;;;;2.30;1.40;;;;;;;14.72;70.92;100907.83;104911;1302;22569;-59
2024/04/10 01:06:05;;;;;;;2.90;1.10;;;;;;;14.52;70.66;100910.80;104992;1310;25266;-57
2024/04/10 01:08:33;;;;;;;5.20;1.20;;;;;;;14.34;70.45;100915.45;105185;1310;22623;-59
2024/04/10 01:11:01;;;;;;;6.50;1.00;;;;;;;14.25;69.51;100920.70;105097;1291;22506;-59
2024/04/10 01:13:28;;;;;;;1.90;0.70;;;;;;;14.19;68.96;100925.38;105103;1308;22580;-58
2024/04/10 01:15:57;;;;;;;2.00;1.00;;;;;;;14.14;68.56;100931.23;105072;1301;24333;-60
2024/04/10 01:18:22;;;;;;;1.80;0.90;;;;;;;14.06;67.61;100943.23;105109;1308;22491;-59
2024/04/10 01:20:49;;;;;;;2.00;1.20;;;;;;;14.00;67.25;100949.29;105064;1291;23866;-58
2024/04/10 01:23:24;;;;;;;1.30;0.80;;;;;;;13.95;65.59;100952.88;105011;1305;25965;-58
2024/04/10 01:25:49;;;;;;;5.50;0.80;;;;;;;13.89;65.69;100964.97;105031;1309;25557;-58
2024/04/10 01:28:15;;;;;;;1.30;0.90;;;;;;;13.87;65.56;100967.10;105050;1304;22777;-58
2024/04/10 01:30:41;;;;;;;1.90;0.90;;;;;;;13.83;65.18;100965.46;104997;1286;22519;-60
2024/04/10 01:33:07;;;;;;;3.00;1.00;;;;;;;13.80;63.83;100976.63;105077;1309;22639;-58
2024/04/10 01:35:33;;;;;;;2.90;1.00;;;;;;;13.76;63.86;100982.62;105065;1309;23113;-58
2024/04/10 01:37:58;;;;;;;1.50;0.70;;;;;;;13.72;62.81;100985.31;105061;1309;22613;-60
2024/04/10 01:40:24;;;;;;;2.60;1.00;;;;;;;13.70;63.23;100988.13;104975;1310;22715;-59
2024/04/10 01:42:50;;;;;;;2.90;1.20;;;;;;;13.69;62.51;100982.09;104948;1292;22509;-58
2024/04/10 01:45:15;;;;;;;4.10;1.10;;;;;;;13.66;62.54;100987.02;104963;1310;22646;-58
2024/04/10 01:47:43;;;;;;;5.20;1.30;;;;;;;13.60;62.16;100988.52;104941;1310;22625;-58
2024/04/10 01:50:09;;;;;;;1.90;0.90;;;;;;;13.59;62.47;100997.90;105002;1307;23140;-59
2024/04/10 01:52:35;;;;;;;1.60;1.00;;;;;;;13.58;63.03;101004.33;105037;1292;22562;-59
2024/04/10 01:55:04;;;;;;;8.00;1.10;;;;;;;13.55;62.07;101005.44;105027;1295;22517;-58
2024/04/10 01:57:29;;;;;;;1.00;0.90;;;;;;;13.53;62.67;101011.71;105047;1307;24091;-58
2024/04/10 01:59:55;;;;;;;4.60;1.10;;;;;;;13.51;62.57;101018.02;105077;1301;23757;-59
2024/04/10 02:02:20;;;;;;;1.90;1.20;;;;;;;13.47;62.47;101019.33;104933;1300;24245;-59
2024/04/10 02:04:46;;;;;;;5.70;1.10;;;;;;;13.44;62.28;101020.61;104991;1304;22517;-58
2024/04/10 02:07:12;;;;;;;2.00;1.00;;;;;;;13.38;61.66;101020.05;104993;1310;22643;-58
2024/04/10 02:09:37;;;;;;;3.30;1.20;;;;;;;13.36;61.25;101023.38;104966;1310;22531;-58
2024/04/10 02:12:04;;;;;;;5.90;1.60;;;;;;;13.34;61.80;101034.68;105132;1291;25555;-57
2024/04/10 02:14:30;;;;;;;4.30;1.50;;;;;;;13.29;60.29;101039.27;105225;1308;23036;-58
2024/04/10 02:16:56;;;;;;;3.90;1.50;;;;;;;13.26;60.80;101042.10;104734;1309;22591;-59
2024/04/10 02:19:21;;;;;;;4.40;1.20;;;;;;;13.24;60.91;101047.67;105058;1302;23957;-58
2024/04/10 02:21:47;;;;;;;4.90;1.00;;;;;;;13.20;60.34;101051.55;104915;1292;22537;-58
2024/04/10 02:24:13;;;;;;;2.50;1.00;;;;;;;13.16;60.30;101057.52;105025;1310;22505;-59
2024/04/10 02:26:39;;;;;;;5.00;1.00;;;;;;;13.16;60.93;101065.31;105106;1309;22526;-59
2024/04/10 02:29:08;;;;;;;9.00;1.20;;;;;;;13.14;60.37;101069.31;105115;1309;22561;-58
2024/04/10 02:31:33;;;;;;;3.00;0.90;;;;;;;13.11;60.47;101071.79;105039;1292;22571;-60
2024/04/10 02:33:59;;;;;;;6.50;1.00;;;;;;;13.11;60.75;101079.73;105166;1308;24263;-58
2024/04/10 02:36:27;;;;;;;4.30;2.10;;;;;;;13.11;60.78;101085.48;105237;1291;22592;-58
2024/04/10 02:38:53;;;;;;;3.00;0.80;;;;;;;13.11;60.54;101088.42;105163;1309;22564;-57
2024/04/10 02:41:18;;;;;;;4.50;1.10;;;;;;;13.13;60.84;101090.98;105232;1307;22580;-58
2024/04/10 02:43:44;;;;;;;4.00;1.40;;;;;;;13.11;60.88;101091.70;105131;1298;22588;-58
2024/04/10 02:46:10;;;;;;;7.80;0.90;;;;;;;13.09;60.59;101090.19;104778;1304;22648;-58
2024/04/10 02:48:35;;;;;;;2.70;1.10;;;;;;;13.07;60.90;101095.92;105086;1310;22853;-59
2024/04/10 02:51:01;;;;;;;3.50;1.10;;;;;;;13.08;61.08;101098.86;105067;1310;22557;-58
2024/04/10 02:53:27;;;;;;;2.50;0.90;;;;;;;13.07;60.56;101107.34;105117;1292;25464;-59
2024/04/10 02:55:53;;;;;;;2.80;0.80;;;;;;;13.08;60.59;101116.52;105216;1308;22509;-58
2024/04/10 02:58:20;;;;;;;4.50;1.20;;;;;;;13.07;60.49;101113.23;105490;1305;22557;-58
2024/04/10 03:00:48;;;;;;;3.10;0.90;;;;;;;13.06;60.66;101112.39;105639;1308;22574;-59
2024/04/10 03:03:14;;;;;;;3.80;0.90;;;;;;;13.06;60.90;101113.09;105276;1292;22573;-59
2024/04/10 03:05:40;;;;;;;3.30;1.00;;;;;;;13.04;60.82;101116.75;105292;1310;22555;-58
2024/04/10 03:08:06;;;;;;;2.10;0.80;;;;;;;13.03;60.68;101127.48;105167;1310;25444;-59
2024/04/10 03:10:32;;;;;;;3.80;1.00;;;;;;;13.04;60.74;101129.56;105156;1307;22561;-58
2024/04/10 03:13:12;;;;;;;4.70;0.80;;;;;;;13.02;60.64;101135.83;105402;1299;25310;-58
2024/04/10 03:15:38;;;;;;;2.40;0.90;;;;;;;13.00;60.69;101136.73;105195;1309;24834;-59
2024/04/10 03:18:03;;;;;;;2.80;0.90;;;;;;;13.00;60.78;101141.59;105168;1309;24245;-59
2024/04/10 03:20:29;;;;;;;2.00;0.80;;;;;;;13.02;60.89;101144.66;105184;1301;22519;-56
2024/04/10 03:22:54;;;;;;;1.40;0.70;;;;;;;13.02;60.48;101154.86;105042;1292;25097;-57
2024/04/10 03:25:19;;;;;;;3.70;1.10;;;;;;;12.99;60.24;101158.06;105174;1309;22568;-57
2024/04/10 03:27:45;;;;;;;4.60;0.60;;;;;;;12.97;60.65;101158.45;105194;1304;22626;-58
2024/04/10 03:30:10;;;;;;;2.40;0.80;;;;;;;12.96;60.26;101159.33;105227;1307;24093;-57
2024/04/10 03:32:39;;;;;;;2.10;0.80;;;;;;;12.95;60.39;101164.54;105079;1302;22549;-57
2024/04/10 03:35:05;;;;;;;2.80;1.10;;;;;;;12.95;60.69;101167.82;105382;1289;22554;-57
2024/04/10 03:37:31;;;;;;;2.30;0.70;;;;;;;12.96;60.60;101170.59;105296;1301;23151;-57
2024/04/10 03:39:57;;;;;;;3.80;1.00;;;;;;;12.96;60.49;101173.34;105214;1309;22543;-57
2024/04/10 03:42:22;;;;;;;3.80;1.00;;;;;;;12.95;60.06;101176.99;105226;1308;22511;-56
2024/04/10 03:44:48;;;;;;;3.70;0.90;;;;;;;12.95;59.74;101186.69;105119;1294;23116;-58
2024/04/10 03:47:14;;;;;;;3.00;0.80;;;;;;;12.95;59.93;101193.44;104902;1310;26589;-57
2024/04/10 03:49:39;;;;;;;7.20;0.90;;;;;;;12.96;60.21;101194.29;105129;1310;23633;-56
2024/04/10 03:52:05;;;;;;;3.10;0.90;;;;;;;12.96;60.21;101190.30;104867;1310;25369;-56
2024/04/10 03:54:31;;;;;;;5.50;0.90;;;;;;;12.98;60.13;101189.58;105196;1302;25320;-57
2024/04/10 03:56:56;;;;;;;3.50;0.90;;;;;;;12.93;59.43;101188.95;104223;1301;24239;-59
2024/04/10 03:59:22;;;;;;;3.00;1.20;;;;;;;12.92;59.97;101179.13;104154;1304;22606;-61
2024/04/10 04:01:48;;;;;;;3.10;0.80;;;;;;;12.92;60.15;101171.50;104181;1309;22562;-60
2024/04/10 04:04:13;;;;;;;2.50;0.70;;;;;;;12.93;60.10;101176.68;104101;1291;24487;-60
2024/04/10 04:06:39;;;;;;;8.40;1.20;;;;;;;12.92;60.12;101182.73;104108;1310;24426;-60
2024/04/10 04:09:07;;;;;;;3.30;0.80;;;;;;;12.90;59.78;101187.11;104042;1308;22584;-60
2024/04/10 04:11:32;;;;;;;5.70;0.80;;;;;;;12.85;59.81;101198.27;103770;1307;22760;-61
2024/04/10 04:13:57;;;;;;;2.80;0.70;;;;;;;12.81;60.08;101204.73;103965;1301;22614;-60
2024/04/10 04:16:23;;;;;;;4.90;0.70;;;;;;;12.79;59.89;101211.34;104258;1309;22603;-59
2024/04/10 04:18:49;;;;;;;3.30;0.80;;;;;;;12.77;59.99;101212.75;104178;1301;22743;-59
2024/04/10 04:21:14;;;;;;;2.10;0.80;;;;;;;12.76;60.22;101223.15;104151;1301;22588;-58
2024/04/10 04:23:40;;;;;;;4.20;1.00;;;;;;;12.73;60.00;101224.05;104257;1302;22599;-59
2024/04/10 04:26:05;;;;;;;3.50;1.20;;;;;;;12.72;60.21;101232.03;104019;1302;22540;-60
2024/04/10 04:28:31;;;;;;;3.60;0.90;;;;;;;12.70;60.42;101237.95;103896;1309;24410;-60
2024/04/10 04:30:56;;;;;;;2.30;0.60;;;;;;;12.67;60.60;101243.54;103991;1304;22568;-59
2024/04/10 04:33:22;;;;;;;2.00;0.80;;;;;;;12.65;61.14;101243.90;103739;1304;22578;-59
2024/04/10 04:35:48;;;;;;;4.30;0.90;;;;;;;12.61;61.03;101242.23;103794;1292;22576;-59
2024/04/10 04:38:14;;;;;;;3.70;1.00;;;;;;;12.58;60.91;101245.54;104016;1309;22618;-59
2024/04/10 04:40:40;;;;;;;1.20;0.60;;;;;;;12.57;60.89;101246.60;103999;1296;22522;-59
2024/04/10 04:43:08;;;;;;;6.90;1.20;;;;;;;12.55;61.27;101257.69;104027;1301;22571;-59
2024/04/10 04:45:35;;;;;;;3.40;0.80;;;;;;;12.51;61.47;101270.73;103955;1288;22574;-61
2024/04/10 04:48:00;;;;;;;3.10;0.80;;;;;;;12.48;61.27;101280.28;104282;1295;25456;-59
2024/04/10 04:50:26;;;;;;;1.70;0.70;;;;;;;12.49;61.36;101294.79;105017;1295;22561;-57
2024/04/10 04:52:51;;;;;;;4.10;1.00;;;;;;;12.48;61.45;101306.55;104141;1307;26057;-60
2024/04/10 04:55:17;;;;;;;5.90;1.40;;;;;;;12.44;61.88;101311.83;104934;1301;22554;-59
2024/04/10 04:57:43;;;;;;;2.30;0.80;;;;;;;12.40;61.80;101321.05;104620;1301;24335;-59
2024/04/10 05:00:11;;;;;;;4.00;0.70;;;;;;;12.37;61.92;101331.98;104280;1302;23536;-58
2024/04/10 05:02:41;;;;;;;1.20;0.60;;;;;;;12.35;62.07;101341.68;104582;1301;22831;-58
2024/04/10 05:05:13;;;;;;;1.50;0.60;;;;;;;12.30;62.10;101347.27;104448;1291;22583;-58
2024/04/10 05:07:44;;;;;;;4.10;0.70;;;;;;;12.27;62.13;101355.25;106040;1310;22583;-57
2024/04/10 05:10:11;;;;;;;3.40;0.80;;;;;;;12.25;62.17;101360.10;106190;1304;22957;-57
2024/04/10 05:12:38;;;;;;;2.50;0.60;;;;;;;12.21;62.31;101370.69;106052;1310;25460;-57
2024/04/10 05:15:08;;;;;;;6.60;0.90;;;;;;;12.18;62.69;101383.17;106315;1285;22608;-58
2024/04/10 05:17:34;;;;;;;2.70;0.60;;;;;;;12.17;62.30;101386.65;106389;1309;22787;-58
2024/04/10 05:19:59;;;;;;;2.20;0.70;;;;;;;12.18;62.58;101398.73;106582;1309;25352;-57
2024/04/10 05:22:25;;;;;;;7.50;1.00;;;;;;;12.17;62.98;101402.54;106440;1299;22631;-58
2024/04/10 05:24:51;;;;;;;2.70;0.70;;;;;;;12.14;62.92;101406.20;106337;1302;22809;-59
2024/04/10 05:27:28;;;;;;;1.30;0.50;;;;;;;12.11;63.27;101411.42;106287;1307;24244;-58
2024/04/10 05:29:59;;;;;;;;;;;;;;;12.07;63.71;101415.09;106375;1304;23880;-58
2024/04/10 05:32:25;;;;;;;2.30;0.70;;;;;;;12.03;63.57;101417.37;106422;1304;22575;-57
2024/04/10 05:34:54;;;;;;;3.20;0.70;;;;;;;12.02;63.83;101426.55;106295;1310;22858;-59
2024/04/10 05:37:21;;;;;;;2.90;0.70;;;;;;;12.01;63.98;101432.08;106392;1294;22558;-60
2024/04/10 05:39:48;;;;;;;;;;;;;;;11.99;64.04;101431.23;106561;1301;22603;-58
2024/04/10 05:42:14;;;;;;;3.20;1.10;;;;;;;11.97;63.98;101435.92;106539;1307;22592;-58
2024/04/10 05:44:39;;;;;;;2.60;0.90;;;;;;;11.94;64.91;101435.45;106640;1309;22542;-58
2024/04/10 05:47:06;;;;;;;3.60;1.00;;;;;;;11.92;64.91;101440.65;106625;1291;24398;-57
2024/04/10 05:49:32;;;;;;;5.50;1.00;;;;;;;11.92;64.94;101446.00;106682;1310;22610;-58
2024/04/10 05:51:58;;;;;;;3.70;0.90;;;;;;;11.85;64.64;101445.88;106592;1304;23142;-58
2024/04/10 05:54:25;;;;;;;3.00;1.00;;;;;;;11.86;65.12;101448.13;106553;1310;22561;-58
2024/04/10 05:56:52;;;;;;;3.60;0.90;;;;;;;11.81;66.04;101455.59;106690;1290;23066;-58
2024/04/10 05:59:17;;;;;;;3.00;0.80;;;;;;;11.73;68.11;101462.54;106652;1307;25297;-59
2024/04/10 06:01:43;;;;;;;3.70;1.00;;;;;;;11.67;66.83;101469.13;106498;1309;22601;-60
2024/04/10 06:04:08;;;;;;;4.80;1.10;;;;;;;11.66;66.58;101471.05;105985;1301;22700;-58
2024/04/10 06:06:35;;;;;;;5.60;1.30;;;;;;;11.67;65.58;101469.82;106162;1291;22627;-58
2024/04/10 06:09:00;;;;;;;6.10;1.20;;;;;;;11.74;66.80;101469.77;106149;1307;22785;-58
2024/04/10 06:11:27;;;;;;;3.90;1.10;;;;;;;11.70;66.94;101477.06;106387;1302;22740;-60
2024/04/10 06:13:59;;;;;;;;;;;;;;;11.67;67.08;101479.33;106041;1295;24181;-57
2024/04/10 06:16:24;;;;;;;3.20;1.50;;;;;;;11.66;67.57;101479.84;104854;1291;26828;-59
2024/04/10 06:18:50;;;;;;;4.00;1.50;;;;;;;11.56;67.52;101480.42;105553;1295;22685;-60
2024/04/10 06:21:16;;;;;;;5.20;1.40;;;;;;;11.52;68.46;101482.70;106649;1307;22611;-58
2024/04/10 06:23:42;;;;;;;2.80;0.90;;;;;;;11.44;69.63;101490.70;106633;1308;27518;-55
2024/04/10 06:26:10;;;;;;;4.80;1.10;;;;;;;11.36;69.53;101488.34;106321;1286;23137;-58
2024/04/10 06:28:36;;;;;;;5.10;1.40;;;;;;;11.31;69.09;101487.33;106117;1304;22580;-59
2024/04/10 06:31:04;;;;;;;3.70;1.20;;;;;;;11.34;69.57;101491.29;106491;1295;22499;-56
2024/04/10 06:33:31;;;;;;;3.00;1.00;;;;;;;11.35;68.98;101493.88;106395;1298;22569;-58
2024/04/10 06:36:03;;;;;;;4.30;1.00;;;;;;;11.36;69.46;101490.59;106429;1304;143124;-57
2024/04/10 06:38:33;;;;;;;3.30;0.90;;;;;;;11.33;69.86;101494.05;106670;1290;23015;-59
2024/04/10 06:41:00;;;;;;;0.90;0.60;;;;;;;11.30;69.39;101501.14;106580;1301;22592;-58
2024/04/10 06:43:26;;;;;;;2.70;0.90;;;;;;;11.36;69.65;101505.95;106601;1301;22610;-59
2024/04/10 06:46:07;;;;;;;3.30;1.50;;;;;;;11.40;68.93;101515.25;106584;1309;22974;-59
2024/04/10 06:48:33;;;;;;;2.60;1.10;;;;;;;11.48;69.07;101517.94;106464;1291;23052;-58
2024/04/10 06:51:05;;;;;;;4.50;1.00;;;;;;;11.47;69.34;101513.80;106734;1310;22587;-58
2024/04/10 06:53:32;;;;;;;1.80;0.90;;;;;;;11.51;69.68;101521.03;106657;1295;22587;-57
2024/04/10 06:56:02;;;;;;;5.90;0.90;;;;;;;11.51;69.25;101519.48;106715;1310;23116;-57
2024/04/10 06:58:29;;;;;;;3.40;0.90;;;;;;;11.53;69.00;101522.40;106897;1291;22632;-58
2024/04/10 07:01:00;;;;;;;2.80;0.80;;;;;;;11.58;69.33;101530.48;106819;1302;22525;-57
2024/04/10 07:03:27;;;;;;;4.50;0.80;;;;;;;11.52;68.80;101531.21;106561;1301;22505;-58
2024/04/10 07:06:27;;;;;;;2.50;0.80;;;;;;;11.57;68.70;101532.74;106587;1309;22653;-57
2024/04/10 07:08:54;;;;;;;1.40;1.00;;;;;;;11.68;68.97;101533.38;107268;1294;22659;-58
2024/04/10 07:11:20;;;;;;;;;;;;;;;11.70;68.69;101527.84;106532;1301;22718;-57
2024/04/10 07:13:50;;;;;;;5.90;1.00;;;;;;;11.71;68.80;101531.64;106550;1310;23548;-58
2024/04/10 07:16:18;;;;;;;2.90;1.10;;;;;;;11.70;68.98;101534.74;106427;1302;22622;-57
2024/04/10 07:18:45;;;;;;;2.50;1.20;;;;;;;11.70;69.21;101542.69;106221;1291;22603;-58
2024/04/10 07:21:14;;;;;;;4.70;1.10;;;;;;;11.58;70.01;101538.61;106529;1307;22512;-58
2024/04/10 07:23:41;;;;;;;3.50;1.10;;;;;;;11.55;69.41;101535.16;106617;1309;22593;-59
2024/04/10 07:26:14;;;;;;;2.20;0.90;;;;;;;11.67;69.64;101538.56;106322;1307;22919;-57
2024/04/10 07:28:50;;;;;;;3.50;1.30;;;;;;;11.80;69.81;101550.27;106330;1291;22603;-58
2024/04/10 07:31:21;;;;;;;4.20;1.50;;;;;;;11.87;69.21;101548.66;106204;1310;22514;-59
2024/04/10 07:33:53;;;;;;;6.40;1.40;;;;;;;11.90;69.54;101550.55;106320;1307;22608;-58
2024/04/10 07:36:21;;;;;;;4.90;1.30;;;;;;;11.88;69.78;101549.02;106384;1302;22791;-58
2024/04/10 07:38:50;;;;;;;4.40;1.30;;;;;;;11.87;69.96;101552.64;106337;1291;22668;-57
2024/04/10 07:41:17;;;;;;;3.70;1.20;;;;;;;11.95;69.60;101557.59;106483;1309;22508;-58
2024/04/10 07:43:43;;;;;;;;;;;;;;;12.01;69.65;101558.92;106356;1302;24090;-59
2024/04/10 07:46:12;;;;;;;5.50;1.10;;;;;;;12.00;69.47;101557.55;106399;1301;22649;-58
2024/04/10 07:48:40;;;;;;;4.20;1.20;;;;;;;11.98;70.03;101562.91;106277;1300;22556;-59
2024/04/10 07:51:10;;;;;;;2.10;1.10;;;;;;;11.98;70.14;101563.78;106285;1304;22545;-57
2024/04/10 07:53:38;;;;;;;2.80;1.30;;;;;;;12.04;70.13;101567.36;106189;1304;24467;-56
2024/04/10 07:56:04;;;;;;;3.90;1.30;;;;;;;12.09;69.92;101567.16;106296;1294;22488;-59
2024/04/10 07:58:30;;;;;;;2.50;1.10;;;;;;;12.14;69.63;101567.83;106437;1292;22680;-55
2024/04/10 08:00:58;;;;;;;2.10;1.20;;;;;;;12.08;69.58;101578.05;106021;1309;22683;-59
2024/04/10 08:03:25;;;;;;;2.90;1.30;;;;;;;12.08;69.72;101582.20;106672;1301;22511;-62
2024/04/10 08:06:03;;;;;;;5.20;1.30;;;;;;;12.09;69.46;101584.79;106664;1298;22596;-57
2024/04/10 08:08:30;;;;;;;2.50;1.10;;;;;;;12.17;69.78;101594.92;106760;1287;22628;-59
2024/04/10 08:11:13;;;;;;;3.70;1.00;;;;;;;12.26;69.32;101598.66;106616;1310;22228;-59
2024/04/10 08:13:40;;;;;;;5.70;1.50;;;;;;;12.33;69.18;101604.16;106840;1304;22613;-59
2024/04/10 08:16:10;;;;;;;3.40;1.20;;;;;;;12.31;69.12;101602.27;106366;1302;22633;-59
2024/04/10 08:18:43;;;;;;;5.50;1.50;;;;;;;12.32;69.17;101603.98;106467;1286;22613;-58
2024/04/10 08:21:14;;;;;;;2.30;1.10;;;;;;;12.40;69.10;101609.46;106421;1306;23833;-58
2024/04/10 08:23:42;;;;;;;4.90;1.50;;;;;;;12.38;68.95;101610.35;106319;1295;23104;-57
2024/04/10 08:26:20;;;;;;;5.10;1.20;;;;;;;12.35;68.90;101616.60;106212;1301;22649;-60
2024/04/10 08:28:50;;;;;;;5.90;1.30;;;;;;;12.32;68.77;101615.75;106020;1286;22745;-59
2024/04/10 08:31:18;;;;;;;2.00;1.20;;;;;;;12.34;68.72;101619.36;106324;1305;22797;-57
2024/04/10 08:33:44;;;;;;;3.40;1.30;;;;;;;12.41;68.68;101614.83;106021;1304;22900;-57
2024/04/10 08:36:12;;;;;;;3.30;1.70;;;;;;;12.44;68.64;101622.40;105212;1301;24207;-57
2024/04/10 08:38:41;;;;;;;5.20;1.50;;;;;;;12.52;68.69;101626.45;103454;1301;25309;-56
2024/04/10 08:41:17;;;;;;;6.10;1.30;;;;;;;12.54;68.19;101629.39;104226;1290;24288;-58
2024/04/10 08:43:44;;;;;;;4.50;1.40;;;;;;;12.45;68.10;101629.14;103670;1307;24388;-58
2024/04/10 08:46:10;;;;;;;4.20;1.50;;;;;;;12.34;67.96;101637.34;103782;1307;22551;-59
2024/04/10 08:48:39;;;;;;;3.00;1.40;;;;;;;12.21;68.21;101639.50;103656;1286;24288;-58
2024/04/10 08:51:12;;;;;;;4.80;1.60;;;;;;;12.21;68.44;101645.73;107415;1291;22290;-58
2024/04/10 08:53:43;;;;;;;3.80;1.80;;;;;;;12.30;68.58;101643.60;104429;1295;22560;-58
2024/04/10 08:56:10;;;;;;;6.60;1.90;;;;;;;12.34;68.38;101650.33;103756;1294;25262;-59
2024/04/10 08:58:37;;;;;;;6.60;1.40;;;;;;;12.39;68.37;101649.08;103679;1294;25364;-59
2024/04/10 09:01:03;;;;;;;5.60;2.00;;;;;;;12.47;68.30;101651.23;103767;1295;23329;-60
2024/04/10 09:03:29;;;;;;;5.20;2.20;;;;;;;12.50;68.29;101654.15;103810;1295;24280;-59
2024/04/10 09:06:05;;;;;;;6.40;2.00;;;;;;;12.52;68.40;101656.38;103710;1309;23315;-58
2024/04/10 09:08:30;;;;;;;4.30;1.40;;;;;;;12.58;68.33;101661.86;103733;1294;22800;-57
2024/04/10 09:10:56;;;;;;;3.00;1.80;;;;;;;12.62;68.14;101660.29;103448;1294;22569;-58
2024/04/10 09:13:21;;;;;;;3.60;1.90;;;;;;;12.66;68.25;101662.68;103779;1310;25378;-57
2024/04/10 09:15:57;;;;;;;3.90;1.40;;;;;;;12.79;67.93;101668.13;103775;1305;22683;-59
2024/04/10 09:18:23;;;;;;;6.50;2.40;;;;;;;12.88;67.66;101672.37;104013;1294;25320;-58
2024/04/10 09:20:48;;;;;;;4.60;1.70;;;;;;;12.94;67.80;101672.67;103535;1291;25452;-59
2024/04/10 09:23:14;;;;;;;4.80;2.00;;;;;;;13.01;67.55;101669.29;103865;1309;25298;-60
2024/04/10 09:25:42;;;;;;;3.40;1.70;;;;;;;13.00;67.53;101670.69;103869;1301;22682;-59
2024/04/10 09:28:08;;;;;;;4.30;1.60;;;;;;;12.99;67.71;101674.34;104224;1309;22584;-60
2024/04/10 09:30:35;;;;;;;3.30;1.10;;;;;;;13.04;67.22;101671.51;104703;1299;22710;-59
2024/04/10 09:33:03;;;;;;;3.30;1.00;;;;;;;13.16;67.19;101671.76;103762;1310;22608;-60
2024/04/10 09:35:30;;;;;;;5.10;1.50;;;;;;;13.32;66.97;101674.04;104399;1301;23604;-59
2024/04/10 09:38:03;;;;;;;4.20;1.90;;;;;;;13.48;66.71;101680.96;103928;1309;22560;-59
2024/04/10 09:40:30;;;;;;;3.60;1.50;;;;;;;13.63;66.20;101680.25;103867;1292;22603;-59
2024/04/10 09:43:07;;;;;;;3.70;1.20;;;;;;;14.03;67.15;101683.90;103978;1301;22547;-58
2024/04/10 09:45:43;;;;;;;4.40;1.10;;;;;;;14.53;65.01;101682.35;104352;1292;22592;-59
2024/04/10 09:48:09;;;;;;;4.70;1.00;;;;;;;14.64;65.64;101682.16;103981;1301;22605;-58
2024/04/10 09:50:37;;;;;;;1.80;0.80;;;;;;;14.99;65.72;101685.21;103889;1291;22587;-58
2024/04/10 09:53:19;;;;;;;4.80;1.30;;;;;;;15.17;64.36;101690.09;105003;1310;25323;-59
2024/04/10 09:56:05;;;;;;;3.60;1.30;;;;;;;15.28;65.07;101689.55;104050;1297;25323;-60
2024/04/10 09:58:58;;;;;;;3.30;1.20;;;;;;;15.57;64.23;101690.93;103800;1307;25346;-60
2024/04/10 10:01:33;;;;;;;4.10;1.00;;;;;;;15.62;61.87;101699.71;103916;1306;22721;-58
2024/04/10 10:03:59;;;;;;;2.20;0.70;;;;;;;15.67;62.42;101699.95;104193;1295;24238;-59
2024/04/10 10:06:29;;;;;;;2.30;0.90;;;;;;;15.89;62.72;101707.83;104003;1286;22551;-58
2024/04/10 10:08:54;;;;;;;2.20;1.00;;;;;;;16.28;61.62;101709.09;103998;1301;25371;-58
2024/04/10 10:11:21;;;;;;;2.00;1.10;;;;;;;16.48;60.99;101709.30;103948;1291;22615;-60
2024/04/10 10:13:57;;;;;;;2.50;1.20;;;;;;;17.02;61.60;101719.33;103877;1294;22568;-57
2024/04/10 10:16:26;;;;;;;3.70;1.10;;;;;;;17.87;61.29;101716.68;103760;1304;25261;-60
2024/04/10 10:19:02;;;;;;;2.50;1.20;;;;;;;18.31;56.40;101712.93;103755;1303;23985;-59
2024/04/10 10:21:30;;;;;;;2.50;1.20;;;;;;;18.07;58.39;101711.40;103943;1289;22592;-59
2024/04/10 10:23:57;;;;;;;2.60;1.10;;;;;;;18.18;56.20;101711.95;103889;1295;25875;-59
2024/04/10 10:26:33;;;;;;;2.40;1.20;;;;;;;17.95;56.46;101714.89;103704;1295;25364;-58
2024/04/10 10:29:06;;;;;;;2.90;1.30;;;;;;;18.02;56.28;101714.34;103235;1309;22554;-59
2024/04/10 10:31:33;;;;;;;2.80;1.10;;;;;;;17.79;54.88;101710.11;103829;1291;22576;-58
2024/04/10 10:34:14;;;;;;;2.20;1.00;;;;;;;17.52;54.97;101712.77;103955;1304;25535;-59
2024/04/10 10:36:39;;;;;;;3.30;1.30;;;;;;;17.20;54.44;101716.96;104262;1302;25465;-59
2024/04/10 10:39:51;;;;;;;2.80;1.10;;;;;;;17.11;54.95;101718.59;103733;1304;24277;-59
2024/04/10 10:42:03;;;;;;;3.30;1.00;;;;;;;17.42;55.08;101716.37;103797;1292;22557;-59
2024/04/10 10:44:40;;;;;;;2.80;1.20;;;;;;;17.67;56.16;101714.46;103465;1297;22579;-59
2024/04/10 10:47:07;;;;;;;2.50;1.00;;;;;;;18.98;56.34;101707.77;104056;1302;24302;-60
2024/04/10 10:49:41;;;;;;;1.50;0.90;;;;;;;19.89;51.98;101711.91;104323;1309;22656;-60
2024/04/10 10:52:18;;;;;;;2.00;1.00;;;;;;;19.94;53.80;101717.86;103842;1291;24378;-58
2024/04/10 10:54:43;;;;;;;2.60;1.00;;;;;;;20.32;52.42;101730.39;104633;1301;22583;-59
2024/04/10 10:57:11;;;;;;;2.20;0.70;;;;;;;20.61;53.40;101733.81;103863;1301;25245;-59
2024/04/10 10:59:44;;;;;;;7.80;1.20;;;;;;;20.50;49.48;101736.69;103790;1310;22632;-60
2024/04/10 11:02:14;;;;;;;4.40;1.30;;;;;;;19.75;49.15;101739.01;103752;1291;26157;-59
2024/04/10 11:04:40;;;;;;;1.80;1.10;;;;;;;19.17;49.51;101742.46;104051;1307;24134;-58
2024/04/10 11:07:08;;;;;;;3.10;1.10;;;;;;;18.72;49.38;101746.08;103812;1301;25464;-58
2024/04/10 11:09:40;;;;;;;3.50;1.00;;;;;;;18.46;50.92;101750.69;103797;1305;24286;-59
2024/04/10 11:12:07;;;;;;;1.40;0.80;;;;;;;18.47;51.17;101747.85;103803;1291;22551;-59
2024/04/10 11:14:32;;;;;;;1.80;0.90;;;;;;;18.25;50.84;101756.23;104153;1308;22635;-59
2024/04/10 11:16:59;;;;;;;3.90;1.00;;;;;;;18.13;49.66;101753.26;103854;1307;22556;-58
2024/04/10 11:19:24;;;;;;;2.00;1.00;;;;;;;17.71;49.60;101763.90;103814;1308;22557;-57
2024/04/10 11:21:50;;;;;;;3.80;1.40;;;;;;;17.67;49.06;101763.48;103882;1289;22597;-58
2024/04/10 11:24:16;;;;;;;4.10;0.90;;;;;;;17.56;48.44;101764.10;103796;1291;25361;-60